Search for airport 
image banner adimage banner ad
image banner ad

SVMG - Margarita / Intl General En Jefe Santiago Marino

Located in Margarita, Venezuela

ICAO - SVMG, IATA - PMV

Data provided by Airmate  

General information

Coordinates: N10°54'45" W63°57'59"
Elevation is 74 feet MSL.
 
Rated:
View ratings: [VIEW]


View others Airports in Nueva Esparta

Operational data

Open for public use
Current time UTC:
Current local time:
Weather
METAR: SVMG 070002Z AUTO 10010KT NCD 22/24 Q1013
TAF: TAF SVMG 062200Z 0700/0800 06005KT 9999 SCT010 TX34/0619Z TN24/0609Z BECMG 0700/0704 17013KT 9000 -DZ SCT070
View NOTAMs / SUP AIP / TFR affecting this airport [VIEW]
Communications frequencies: [VIEW]

Runways:

RWY identifierQFULength (ft)Width (ft)SurfaceLDA (ft)
0978°10499150ASP
27258°9843148

Airport contact information

Address: Margarita Venezuela

Satellite view of SVMG